sensor_id;sensor_type;location;lat;lon;timestamp;pressure;altitude;pressure_sealevel;temperature;humidity
46756;BME280;32506;52.826;-1.192;2023-04-06T00:00:48;100679.91;;;10.14;61.14
46756;BME280;32506;52.826;-1.192;2023-04-06T00:03:14;100682.59;;;10.14;61.07
46756;BME280;32506;52.826;-1.192;2023-04-06T00:05:40;100678.09;;;10.14;61.31
46756;BME280;32506;52.826;-1.192;2023-04-06T00:08:06;100665.75;;;10.13;61.26
46756;BME280;32506;52.826;-1.192;2023-04-06T00:10:31;100673.75;;;10.13;61.16
46756;BME280;32506;52.826;-1.192;2023-04-06T00:12:58;100670.28;;;10.13;61.19
46756;BME280;32506;52.826;-1.192;2023-04-06T00:15:23;100669.44;;;10.12;61.12
46756;BME280;32506;52.826;-1.192;2023-04-06T00:17:49;100666.78;;;10.12;61.08
46756;BME280;32506;52.826;-1.192;2023-04-06T00:20:15;100656.09;;;10.12;61.14
46756;BME280;32506;52.826;-1.192;2023-04-06T00:22:41;100650.75;;;10.12;61.05
46756;BME280;32506;52.826;-1.192;2023-04-06T00:25:08;100656.09;;;10.12;61.10
46756;BME280;32506;52.826;-1.192;2023-04-06T00:27:33;100649.94;;;10.12;61.04
46756;BME280;32506;52.826;-1.192;2023-04-06T00:29:59;100648.06;;;10.12;61.13
46756;BME280;32506;52.826;-1.192;2023-04-06T00:32:24;100641.94;;;10.12;61.04
46756;BME280;32506;52.826;-1.192;2023-04-06T00:34:50;100647.28;;;10.12;61.39
46756;BME280;32506;52.826;-1.192;2023-04-06T00:37:15;100644.59;;;10.12;61.17
46756;BME280;32506;52.826;-1.192;2023-04-06T00:39:41;100635.75;;;10.11;61.09
46756;BME280;32506;52.826;-1.192;2023-04-06T00:42:10;100636.59;;;10.12;61.31
46756;BME280;32506;52.826;-1.192;2023-04-06T00:44:38;100628.56;;;10.12;61.17
46756;BME280;32506;52.826;-1.192;2023-04-06T00:47:03;100630.41;;;10.11;61.04
46756;BME280;32506;52.826;-1.192;2023-04-06T00:49:29;100632.06;;;10.12;61.05
46756;BME280;32506;52.826;-1.192;2023-04-06T00:51:54;100629.59;;;10.11;61.14
46756;BME280;32506;52.826;-1.192;2023-04-06T00:54:20;100621.59;;;10.11;61.17
46756;BME280;32506;52.826;-1.192;2023-04-06T00:56:45;100619.72;;;10.11;61.06
46756;BME280;32506;52.826;-1.192;2023-04-06T00:59:11;100618.91;;;10.11;61.17
46756;BME280;32506;52.826;-1.192;2023-04-06T01:01:37;100621.38;;;10.12;61.59
46756;BME280;32506;52.826;-1.192;2023-04-06T01:04:03;100618.09;;;10.10;61.06
46756;BME280;32506;52.826;-1.192;2023-04-06T01:06:28;100620.78;;;10.10;61.32
46756;BME280;32506;52.826;-1.192;2023-04-06T01:08:54;100614.38;;;10.11;61.24
46756;BME280;32506;52.826;-1.192;2023-04-06T01:11:20;100613.56;;;10.11;61.14
46756;BME280;32506;52.826;-1.192;2023-04-06T01:13:46;100602.09;;;10.10;61.40
46756;BME280;32506;52.826;-1.192;2023-04-06T01:16:11;100599.41;;;10.10;61.25
46756;BME280;32506;52.826;-1.192;2023-04-06T01:18:37;100593.00;;;10.11;61.31
46756;BME280;32506;52.826;-1.192;2023-04-06T01:21:03;100592.22;;;10.11;61.19
46756;BME280;32506;52.826;-1.192;2023-04-06T01:23:28;100584.19;;;10.11;61.30
46756;BME280;32506;52.826;-1.192;2023-04-06T01:25:54;100581.53;;;10.11;61.14
46756;BME280;32506;52.826;-1.192;2023-04-06T01:28:19;100584.19;;;10.11;60.93
46756;BME280;32506;52.826;-1.192;2023-04-06T01:30:45;100582.34;;;10.11;61.05
46756;BME280;32506;52.826;-1.192;2023-04-06T01:33:10;100577.00;;;10.11;61.39
46756;BME280;32506;52.826;-1.192;2023-04-06T01:35:36;100574.53;;;10.10;61.18
46756;BME280;32506;52.826;-1.192;2023-04-06T01:38:01;100578.84;;;10.11;61.19
46756;BME280;32506;52.826;-1.192;2023-04-06T01:40:27;100570.84;;;10.11;61.20
46756;BME280;32506;52.826;-1.192;2023-04-06T01:42:52;100565.50;;;10.11;61.00
46756;BME280;32506;52.826;-1.192;2023-04-06T01:45:18;100561.81;;;10.12;61.03
46756;BME280;32506;52.826;-1.192;2023-04-06T01:47:43;100554.81;;;10.11;61.21
46756;BME280;32506;52.826;-1.192;2023-04-06T01:50:09;100556.47;;;10.12;61.10
46756;BME280;32506;52.826;-1.192;2023-04-06T01:52:34;100549.47;;;10.11;61.20
46756;BME280;32506;52.826;-1.192;2023-04-06T01:55:00;100544.94;;;10.11;61.37
46756;BME280;32506;52.826;-1.192;2023-04-06T01:57:25;100541.47;;;10.11;61.12
46756;BME280;32506;52.826;-1.192;2023-04-06T01:59:51;100534.47;;;10.10;61.21
46756;BME280;32506;52.826;-1.192;2023-04-06T02:02:17;100537.78;;;10.12;61.24
46756;BME280;32506;52.826;-1.192;2023-04-06T02:04:42;100545.78;;;10.12;61.19
46756;BME280;32506;52.826;-1.192;2023-04-06T02:07:08;100540.44;;;10.12;61.05
46756;BME280;32506;52.826;-1.192;2023-04-06T02:09:35;100533.47;;;10.11;61.23
46756;BME280;32506;52.826;-1.192;2023-04-06T02:12:00;100531.59;;;10.11;61.11
46756;BME280;32506;52.826;-1.192;2023-04-06T02:14:27;100528.94;;;10.11;61.13
46756;BME280;32506;52.826;-1.192;2023-04-06T02:16:53;100522.78;;;10.11;61.03
46756;BME280;32506;52.826;-1.192;2023-04-06T02:19:19;100525.44;;;10.11;61.46
46756;BME280;32506;52.826;-1.192;2023-04-06T02:21:44;100527.09;;;10.12;61.25
46756;BME280;32506;52.826;-1.192;2023-04-06T02:24:10;100519.88;;;10.12;61.06
46756;BME280;32506;52.826;-1.192;2023-04-06T02:26:35;100523.59;;;10.11;61.26
46756;BME280;32506;52.826;-1.192;2023-04-06T02:29:01;100519.09;;;10.12;61.73
46756;BME280;32506;52.826;-1.192;2023-04-06T02:31:27;100512.91;;;10.11;61.54
46756;BME280;32506;52.826;-1.192;2023-04-06T02:33:53;100510.84;;;10.13;61.47
46756;BME280;32506;52.826;-1.192;2023-04-06T02:36:18;100507.56;;;10.11;61.63
46756;BME280;32506;52.826;-1.192;2023-04-06T02:38:44;100503.88;;;10.12;61.80
46756;BME280;32506;52.826;-1.192;2023-04-06T02:41:09;100506.53;;;10.12;61.50
46756;BME280;32506;52.826;-1.192;2023-04-06T02:43:35;100504.69;;;10.13;61.83
46756;BME280;32506;52.826;-1.192;2023-04-06T02:46:03;100502.84;;;10.13;61.52
46756;BME280;32506;52.826;-1.192;2023-04-06T02:48:29;100497.50;;;10.13;61.82
46756;BME280;32506;52.826;-1.192;2023-04-06T02:50:55;100492.16;;;10.13;61.75
46756;BME280;32506;52.826;-1.192;2023-04-06T02:53:20;100494.84;;;10.13;61.90
46756;BME280;32506;52.826;-1.192;2023-04-06T02:55:46;100494.84;;;10.13;61.47
46756;BME280;32506;52.826;-1.192;2023-04-06T02:58:11;100495.63;;;10.14;61.80
46756;BME280;32506;52.826;-1.192;2023-04-06T03:00:37;100494.63;;;10.15;61.77
46756;BME280;32506;52.826;-1.192;2023-04-06T03:03:02;100491.34;;;10.13;61.91
46756;BME280;32506;52.826;-1.192;2023-04-06T03:05:28;100490.28;;;10.14;61.81
46756;BME280;32506;52.826;-1.192;2023-04-06T03:07:54;100482.28;;;10.14;61.52
46756;BME280;32506;52.826;-1.192;2023-04-06T03:10:19;100483.13;;;10.14;61.57
46756;BME280;32506;52.826;-1.192;2023-04-06T03:12:45;100483.94;;;10.15;61.68
46756;BME280;32506;52.826;-1.192;2023-04-06T03:15:10;100484.97;;;10.14;61.67
46756;BME280;32506;52.826;-1.192;2023-04-06T03:17:36;100488.47;;;10.14;61.73
46756;BME280;32506;52.826;-1.192;2023-04-06T03:20:02;100474.28;;;10.14;61.60
46756;BME280;32506;52.826;-1.192;2023-04-06T03:22:28;100473.25;;;10.15;61.63
46756;BME280;32506;52.826;-1.192;2023-04-06T03:24:54;100471.41;;;10.15;61.84
46756;BME280;32506;52.826;-1.192;2023-04-06T03:27:20;100470.38;;;10.16;61.54
46756;BME280;32506;52.826;-1.192;2023-04-06T03:29:45;100458.66;;;10.17;61.65
46756;BME280;32506;52.826;-1.192;2023-04-06T03:32:11;100462.56;;;10.15;61.77
46756;BME280;32506;52.826;-1.192;2023-04-06T03:34:36;100457.84;;;10.17;61.61
46756;BME280;32506;52.826;-1.192;2023-04-06T03:37:02;100455.41;;;10.15;61.47
46756;BME280;32506;52.826;-1.192;2023-04-06T03:39:27;100454.34;;;10.16;61.65
46756;BME280;32506;52.826;-1.192;2023-04-06T03:41:52;100453.31;;;10.17;61.64
46756;BME280;32506;52.826;-1.192;2023-04-06T03:44:18;100449.00;;;10.16;61.58
46756;BME280;32506;52.826;-1.192;2023-04-06T03:46:43;100453.31;;;10.17;61.37
46756;BME280;32506;52.826;-1.192;2023-04-06T03:49:09;100446.09;;;10.18;61.74
46756;BME280;32506;52.826;-1.192;2023-04-06T03:51:34;100446.09;;;10.18;61.76
46756;BME280;32506;52.826;-1.192;2023-04-06T03:54:00;100441.81;;;10.17;61.77
46756;BME280;32506;52.826;-1.192;2023-04-06T03:56:25;100441.59;;;10.18;61.81
46756;BME280;32506;52.826;-1.192;2023-04-06T03:58:51;100446.09;;;10.18;61.68
46756;BME280;32506;52.826;-1.192;2023-04-06T04:01:17;100437.28;;;10.17;61.79
46756;BME280;32506;52.826;-1.192;2023-04-06T04:03:45;100434.41;;;10.19;61.54
46756;BME280;32506;52.826;-1.192;2023-04-06T04:06:11;100431.72;;;10.19;61.78
46756;BME280;32506;52.826;-1.192;2023-04-06T04:08:36;100426.38;;;10.19;61.83
46756;BME280;32506;52.826;-1.192;2023-04-06T04:11:02;100420.25;;;10.18;61.77
46756;BME280;32506;52.826;-1.192;2023-04-06T04:13:27;100419.41;;;10.18;61.73
46756;BME280;32506;52.826;-1.192;2023-04-06T04:15:53;100418.38;;;10.19;61.87
46756;BME280;32506;52.826;-1.192;2023-04-06T04:18:18;100422.69;;;10.20;61.83
46756;BME280;32506;52.826;-1.192;2023-04-06T04:20:44;100418.38;;;10.19;61.76
46756;BME280;32506;52.826;-1.192;2023-04-06T04:23:10;100421.66;;;10.21;61.65
46756;BME280;32506;52.826;-1.192;2023-04-06T04:25:36;100405.03;;;10.19;61.71
46756;BME280;32506;52.826;-1.192;2023-04-06T04:28:04;100408.53;;;10.19;61.52
46756;BME280;32506;52.826;-1.192;2023-04-06T04:30:29;100412.00;;;10.20;61.68
46756;BME280;32506;52.826;-1.192;2023-04-06T04:32:54;100405.84;;;10.19;61.74
46756;BME280;32506;52.826;-1.192;2023-04-06T04:35:20;100407.47;;;10.20;61.71
46756;BME280;32506;52.826;-1.192;2023-04-06T04:37:46;100399.47;;;10.20;61.57
46756;BME280;32506;52.826;-1.192;2023-04-06T04:40:11;100402.97;;;10.21;61.70
46756;BME280;32506;52.826;-1.192;2023-04-06T04:42:37;100418.16;;;10.20;61.56
46756;BME280;32506;52.826;-1.192;2023-04-06T04:45:02;100413.66;;;10.21;61.38
46756;BME280;32506;52.826;-1.192;2023-04-06T04:47:28;100407.47;;;10.20;61.44
46756;BME280;32506;52.826;-1.192;2023-04-06T04:49:53;100407.47;;;10.20;61.43
46756;BME280;32506;52.826;-1.192;2023-04-06T04:52:19;100407.47;;;10.20;61.48
46756;BME280;32506;52.826;-1.192;2023-04-06T04:54:44;100406.66;;;10.20;61.59
46756;BME280;32506;52.826;-1.192;2023-04-06T04:57:12;100407.47;;;10.20;61.36
46756;BME280;32506;52.826;-1.192;2023-04-06T04:59:37;100409.34;;;10.20;61.42
46756;BME280;32506;52.826;-1.192;2023-04-06T05:02:03;100406.66;;;10.20;61.48
46756;BME280;32506;52.826;-1.192;2023-04-06T05:04:29;100403.19;;;10.19;61.33
46756;BME280;32506;52.826;-1.192;2023-04-06T05:09:29;100402.13;;;10.20;61.34
46756;BME280;32506;52.826;-1.192;2023-04-06T05:11:57;100400.50;;;10.19;61.33
46756;BME280;32506;52.826;-1.192;2023-04-06T05:14:23;100401.31;;;10.20;61.28
46756;BME280;32506;52.826;-1.192;2023-04-06T05:16:48;100393.31;;;10.20;61.16
46756;BME280;32506;52.826;-1.192;2023-04-06T05:19:14;100398.66;;;10.20;61.37
46756;BME280;32506;52.826;-1.192;2023-04-06T05:21:39;100404.81;;;10.20;61.06
46756;BME280;32506;52.826;-1.192;2023-04-06T05:24:05;100415.69;;;10.19;60.88
46756;BME280;32506;52.826;-1.192;2023-04-06T05:26:31;100413.88;;;10.19;61.15
46756;BME280;32506;52.826;-1.192;2023-04-06T05:28:56;100413.66;;;10.21;61.37
46756;BME280;32506;52.826;-1.192;2023-04-06T05:31:22;100412.00;;;10.20;61.45
46756;BME280;32506;52.826;-1.192;2023-04-06T05:33:47;100420.81;;;10.20;61.14
46756;BME280;32506;52.826;-1.192;2023-04-06T05:36:13;100416.31;;;10.21;61.22
46756;BME280;32506;52.826;-1.192;2023-04-06T05:38:38;100421.66;;;10.21;60.95
46756;BME280;32506;52.826;-1.192;2023-04-06T05:41:04;100419.81;;;10.21;61.32
46756;BME280;32506;52.826;-1.192;2023-04-06T05:43:29;100420.81;;;10.20;61.22
46756;BME280;32506;52.826;-1.192;2023-04-06T05:45:55;100419.81;;;10.21;61.37
46756;BME280;32506;52.826;-1.192;2023-04-06T05:48:20;100429.47;;;10.22;61.25
46756;BME280;32506;52.826;-1.192;2023-04-06T05:50:49;100428.66;;;10.22;61.24
46756;BME280;32506;52.826;-1.192;2023-04-06T05:53:16;100430.25;;;10.23;61.34
46756;BME280;32506;52.826;-1.192;2023-04-06T05:55:41;100419.00;;;10.21;61.40
46756;BME280;32506;52.826;-1.192;2023-04-06T05:58:06;100421.44;;;10.22;61.42
46756;BME280;32506;52.826;-1.192;2023-04-06T06:00:32;100413.44;;;10.22;61.49
46756;BME280;32506;52.826;-1.192;2023-04-06T06:02:58;100417.97;;;10.22;61.36
46756;BME280;32506;52.826;-1.192;2023-04-06T06:05:23;100417.75;;;10.23;61.58
46756;BME280;32506;52.826;-1.192;2023-04-06T06:07:49;100417.75;;;10.23;61.50
46756;BME280;32506;52.826;-1.192;2023-04-06T06:10:14;100423.09;;;10.23;61.29
46756;BME280;32506;52.826;-1.192;2023-04-06T06:12:40;100416.91;;;10.23;61.24
46756;BME280;32506;52.826;-1.192;2023-04-06T06:15:06;100422.25;;;10.23;61.45
46756;BME280;32506;52.826;-1.192;2023-04-06T06:17:31;100426.56;;;10.24;61.46
46756;BME280;32506;52.826;-1.192;2023-04-06T06:19:57;100406.22;;;10.23;61.23
46756;BME280;32506;52.826;-1.192;2023-04-06T06:22:22;100413.22;;;10.24;61.33
46756;BME280;32506;52.826;-1.192;2023-04-06T06:24:48;100408.69;;;10.24;61.22
46756;BME280;32506;52.826;-1.192;2023-04-06T06:27:15;100417.53;;;10.25;61.16
46756;BME280;32506;52.826;-1.192;2023-04-06T06:29:41;100413.00;;;10.25;60.81
46756;BME280;32506;52.826;-1.192;2023-04-06T06:32:06;100421.63;;;10.28;61.01
46756;BME280;32506;52.826;-1.192;2023-04-06T06:34:34;100417.09;;;10.28;61.05
46756;BME280;32506;52.826;-1.192;2023-04-06T06:37:00;100417.09;;;10.28;60.75
46756;BME280;32506;52.826;-1.192;2023-04-06T06:39:27;100420.59;;;10.29;60.64
46756;BME280;32506;52.826;-1.192;2023-04-06T06:41:53;100415.03;;;10.30;60.95
46756;BME280;32506;52.826;-1.192;2023-04-06T06:44:20;100420.16;;;10.32;61.00
46756;BME280;32506;52.826;-1.192;2023-04-06T06:46:47;100426.31;;;10.32;60.91
46756;BME280;32506;52.826;-1.192;2023-04-06T06:49:12;100429.59;;;10.34;60.96
46756;BME280;32506;52.826;-1.192;2023-04-06T06:51:38;100421.59;;;10.34;60.58
46756;BME280;32506;52.826;-1.192;2023-04-06T06:54:03;100427.56;;;10.36;60.80
46756;BME280;32506;52.826;-1.192;2023-04-06T06:56:29;100419.53;;;10.36;61.03
46756;BME280;32506;52.826;-1.192;2023-04-06T06:58:54;100431.66;;;10.39;60.78
46756;BME280;32506;52.826;-1.192;2023-04-06T07:01:20;100429.81;;;10.39;60.89
46756;BME280;32506;52.826;-1.192;2023-04-06T07:03:45;100434.94;;;10.41;61.03
46756;BME280;32506;52.826;-1.192;2023-04-06T07:06:10;100433.91;;;10.42;61.03
46756;BME280;32506;52.826;-1.192;2023-04-06T07:08:36;100441.94;;;10.42;61.03
46756;BME280;32506;52.826;-1.192;2023-04-06T07:11:09;100443.53;;;10.43;61.09
46756;BME280;32506;52.826;-1.192;2023-04-06T07:13:35;100445.19;;;10.44;61.17
46756;BME280;32506;52.826;-1.192;2023-04-06T07:16:00;100443.13;;;10.46;60.96
46756;BME280;32506;52.826;-1.192;2023-04-06T07:18:26;100449.28;;;10.47;61.42
46756;BME280;32506;52.826;-1.192;2023-04-06T07:20:51;100450.94;;;10.48;61.18
46756;BME280;32506;52.826;-1.192;2023-04-06T07:23:17;100445.38;;;10.49;61.31
46756;BME280;32506;52.826;-1.192;2023-04-06T07:25:43;100447.00;;;10.50;61.17
46756;BME280;32506;52.826;-1.192;2023-04-06T07:28:08;100450.50;;;10.51;61.46
46756;BME280;32506;52.826;-1.192;2023-04-06T07:30:34;100459.13;;;10.53;61.50
46756;BME280;32506;52.826;-1.192;2023-04-06T07:32:59;100459.94;;;10.53;61.64
46756;BME280;32506;52.826;-1.192;2023-04-06T07:35:26;100460.75;;;10.54;61.56
46756;BME280;32506;52.826;-1.192;2023-04-06T07:37:52;100460.53;;;10.55;61.73
46756;BME280;32506;52.826;-1.192;2023-04-06T07:40:21;100460.31;;;10.57;61.56
46756;BME280;32506;52.826;-1.192;2023-04-06T07:42:47;100463.81;;;10.57;61.77
46756;BME280;32506;52.826;-1.192;2023-04-06T07:45:13;100464.44;;;10.60;62.03
46756;BME280;32506;52.826;-1.192;2023-04-06T07:47:38;100474.06;;;10.61;61.78
46756;BME280;32506;52.826;-1.192;2023-04-06T07:50:04;100473.03;;;10.62;61.59
46756;BME280;32506;52.826;-1.192;2023-04-06T07:52:30;100469.31;;;10.63;61.63
46756;BME280;32506;52.826;-1.192;2023-04-06T07:54:57;100470.97;;;10.64;61.73
46756;BME280;32506;52.826;-1.192;2023-04-06T07:57:23;100478.56;;;10.67;61.77
46756;BME280;32506;52.826;-1.192;2023-04-06T07:59:48;100486.34;;;10.68;61.85
46756;BME280;32506;52.826;-1.192;2023-04-06T08:02:14;100491.47;;;10.70;61.71
46756;BME280;32506;52.826;-1.192;2023-04-06T08:04:39;100495.78;;;10.71;61.90
46756;BME280;32506;52.826;-1.192;2023-04-06T08:07:05;100492.31;;;10.70;61.83
46756;BME280;32506;52.826;-1.192;2023-04-06T08:09:30;100495.56;;;10.72;61.66
46756;BME280;32506;52.826;-1.192;2023-04-06T08:11:59;100492.69;;;10.74;62.00
46756;BME280;32506;52.826;-1.192;2023-04-06T08:14:25;100495.97;;;10.76;62.14
46756;BME280;32506;52.826;-1.192;2023-04-06T08:16:56;100503.78;;;10.78;61.83
46756;BME280;32506;52.826;-1.192;2023-04-06T08:19:25;100505.19;;;10.80;61.84
46756;BME280;32506;52.826;-1.192;2023-04-06T08:21:50;100492.63;;;10.81;62.03
46756;BME280;32506;52.826;-1.192;2023-04-06T08:24:16;100488.72;;;10.83;61.79
46756;BME280;32506;52.826;-1.192;2023-04-06T08:26:42;100492.81;;;10.86;61.91
46756;BME280;32506;52.826;-1.192;2023-04-06T08:29:07;100496.09;;;10.88;62.08
46756;BME280;32506;52.826;-1.192;2023-04-06T08:31:36;100500.19;;;10.90;62.45
46756;BME280;32506;52.826;-1.192;2023-04-06T08:34:03;100512.91;;;10.95;62.61
46756;BME280;32506;52.826;-1.192;2023-04-06T08:36:29;100506.31;;;10.98;62.57
46756;BME280;32506;52.826;-1.192;2023-04-06T08:38:55;100502.38;;;11.00;62.75
46756;BME280;32506;52.826;-1.192;2023-04-06T08:41:20;100520.44;;;11.05;64.13
46756;BME280;32506;52.826;-1.192;2023-04-06T08:43:47;100515.25;;;11.10;63.91
46756;BME280;32506;52.826;-1.192;2023-04-06T08:46:13;100524.66;;;11.19;65.19
46756;BME280;32506;52.826;-1.192;2023-04-06T08:48:40;100523.78;;;11.25;65.62
46756;BME280;32506;52.826;-1.192;2023-04-06T08:51:06;100527.84;;;11.35;66.18
46756;BME280;32506;52.826;-1.192;2023-04-06T08:53:32;100523.00;;;11.44;66.56
46756;BME280;32506;52.826;-1.192;2023-04-06T08:55:58;100523.34;;;11.54;67.05
46756;BME280;32506;52.826;-1.192;2023-04-06T08:58:26;100524.69;;;11.63;66.85
46756;BME280;32506;52.826;-1.192;2023-04-06T09:00:53;100517.16;;;11.72;66.74
46756;BME280;32506;52.826;-1.192;2023-04-06T09:03:20;100527.38;;;11.82;66.66
46756;BME280;32506;52.826;-1.192;2023-04-06T09:05:46;100517.41;;;11.89;66.84
46756;BME280;32506;52.826;-1.192;2023-04-06T09:08:13;100525.97;;;11.98;67.21
46756;BME280;32506;52.826;-1.192;2023-04-06T09:10:41;100518.03;;;12.09;67.66
46756;BME280;32506;52.826;-1.192;2023-04-06T09:13:08;100503.88;;;12.21;68.52
46756;BME280;32506;52.826;-1.192;2023-04-06T09:15:34;100522.25;;;12.36;68.71
46756;BME280;32506;52.826;-1.192;2023-04-06T09:18:00;100517.28;;;12.51;68.62
46756;BME280;32506;52.826;-1.192;2023-04-06T09:20:26;100511.97;;;12.63;68.64
46756;BME280;32506;52.826;-1.192;2023-04-06T09:22:54;100522.50;;;12.76;68.04
46756;BME280;32506;52.826;-1.192;2023-04-06T09:25:24;100522.56;;;12.88;67.87
46756;BME280;32506;52.826;-1.192;2023-04-06T09:27:59;100532.47;;;13.00;67.35
46756;BME280;32506;52.826;-1.192;2023-04-06T09:30:25;100529.50;;;13.08;66.89
46756;BME280;32506;52.826;-1.192;2023-04-06T09:32:54;100533.91;;;13.14;66.71
46756;BME280;32506;52.826;-1.192;2023-04-06T09:35:20;100535.44;;;13.22;66.22
46756;BME280;32506;52.826;-1.192;2023-04-06T09:37:50;100548.53;;;13.30;66.21
46756;BME280;32506;52.826;-1.192;2023-04-06T09:40:17;100547.00;;;13.34;65.35
46756;BME280;32506;52.826;-1.192;2023-04-06T09:42:48;100550.66;;;13.40;65.34
46756;BME280;32506;52.826;-1.192;2023-04-06T09:45:18;100543.78;;;13.44;64.90
46756;BME280;32506;52.826;-1.192;2023-04-06T09:47:46;100553.00;;;13.48;64.70
46756;BME280;32506;52.826;-1.192;2023-04-06T09:50:13;100562.00;;;13.54;64.50
46756;BME280;32506;52.826;-1.192;2023-04-06T09:52:42;100554.28;;;13.57;64.26
46756;BME280;32506;52.826;-1.192;2023-04-06T09:55:12;100557.09;;;13.63;64.02
46756;BME280;32506;52.826;-1.192;2023-04-06T09:58:04;100555.34;;;13.68;63.90
46756;BME280;32506;52.826;-1.192;2023-04-06T10:00:32;100565.38;;;13.73;63.84
46756;BME280;32506;52.826;-1.192;2023-04-06T10:05:46;100575.09;;;13.86;63.69
46756;BME280;32506;52.826;-1.192;2023-04-06T10:08:16;100573.56;;;13.90;63.69
46756;BME280;32506;52.826;-1.192;2023-04-06T10:10:42;100572.59;;;13.96;63.42
46756;BME280;32506;52.826;-1.192;2023-04-06T10:13:10;100564.66;;;14.01;63.63
46756;BME280;32506;52.826;-1.192;2023-04-06T10:15:40;100574.47;;;14.07;63.40
46756;BME280;32506;52.826;-1.192;2023-04-06T10:18:07;100575.16;;;14.15;63.34
46756;BME280;32506;52.826;-1.192;2023-04-06T10:20:49;100578.75;;;14.20;63.27
46756;BME280;32506;52.826;-1.192;2023-04-06T10:23:36;100586.25;;;14.30;63.08
46756;BME280;32506;52.826;-1.192;2023-04-06T10:26:03;100570.44;;;14.34;63.06
46756;BME280;32506;52.826;-1.192;2023-04-06T10:28:35;100584.09;;;14.44;63.49
46756;BME280;32506;52.826;-1.192;2023-04-06T10:31:04;100582.31;;;14.50;63.50
46756;BME280;32506;52.826;-1.192;2023-04-06T10:33:30;100592.22;;;14.61;63.84
46756;BME280;32506;52.826;-1.192;2023-04-06T10:35:55;100589.19;;;14.69;64.17
46756;BME280;32506;52.826;-1.192;2023-04-06T10:38:32;100577.56;;;14.81;64.07
46756;BME280;32506;52.826;-1.192;2023-04-06T10:41:04;100583.13;;;14.91;63.87
46756;BME280;32506;52.826;-1.192;2023-04-06T10:43:33;100588.13;;;14.99;63.81
46756;BME280;32506;52.826;-1.192;2023-04-06T10:46:00;100586.41;;;15.10;63.42
46756;BME280;32506;52.826;-1.192;2023-04-06T10:48:40;100581.22;;;15.20;63.62
46756;BME280;32506;52.826;-1.192;2023-04-06T10:51:13;100587.59;;;15.31;63.66
46756;BME280;32506;52.826;-1.192;2023-04-06T10:53:44;100575.91;;;15.42;63.80
46756;BME280;32506;52.826;-1.192;2023-04-06T10:56:12;100584.50;;;15.56;64.30
46756;BME280;32506;52.826;-1.192;2023-04-06T10:58:38;100583.31;;;15.69;63.94
46756;BME280;32506;52.826;-1.192;2023-04-06T11:01:10;100586.53;;;15.83;63.75
46756;BME280;32506;52.826;-1.192;2023-04-06T11:03:46;100592.13;;;15.99;63.70
46756;BME280;32506;52.826;-1.192;2023-04-06T11:06:24;100595.25;;;16.13;63.26
46756;BME280;32506;52.826;-1.192;2023-04-06T11:08:51;100600.88;;;16.28;63.25
46756;BME280;32506;52.826;-1.192;2023-04-06T11:11:22;100598.34;;;16.43;63.10
46756;BME280;32506;52.826;-1.192;2023-04-06T11:13:51;100601.50;;;16.57;62.78
46756;BME280;32506;52.826;-1.192;2023-04-06T11:21:16;100611.34;;;16.91;54.54
46756;BME280;32506;52.826;-1.192;2023-04-06T11:23:41;100604.59;;;16.93;50.96
46756;BME280;32506;52.826;-1.192;2023-04-06T11:26:14;100598.63;;;16.91;53.63
46756;BME280;32506;52.826;-1.192;2023-04-06T11:28:43;100600.69;;;16.84;51.96
46756;BME280;32506;52.826;-1.192;2023-04-06T11:31:09;100598.50;;;16.81;53.03
46756;BME280;32506;52.826;-1.192;2023-04-06T11:33:37;100597.94;;;16.79;48.64
46756;BME280;32506;52.826;-1.192;2023-04-06T11:36:04;100597.94;;;16.79;49.46
46756;BME280;32506;52.826;-1.192;2023-04-06T11:38:30;100603.34;;;16.79;48.98
46756;BME280;32506;52.826;-1.192;2023-04-06T11:40:59;100598.75;;;16.80;47.84
46756;BME280;32506;52.826;-1.192;2023-04-06T11:43:27;100603.34;;;16.79;49.78
46756;BME280;32506;52.826;-1.192;2023-04-06T11:46:00;100596.31;;;16.78;51.48
46756;BME280;32506;52.826;-1.192;2023-04-06T11:48:26;100596.91;;;16.85;52.45
46756;BME280;32506;52.826;-1.192;2023-04-06T11:50:59;100608.72;;;17.01;53.42
46756;BME280;32506;52.826;-1.192;2023-04-06T11:53:30;100616.16;;;17.16;54.31
46756;BME280;32506;52.826;-1.192;2023-04-06T11:55:56;100610.31;;;17.30;54.58
46756;BME280;32506;52.826;-1.192;2023-04-06T11:58:22;100622.34;;;17.44;55.18
46756;BME280;32506;52.826;-1.192;2023-04-06T12:00:47;100616.22;;;17.54;54.80
46756;BME280;32506;52.826;-1.192;2023-04-06T12:03:13;100611.41;;;17.61;54.79
46756;BME280;32506;52.826;-1.192;2023-04-06T12:05:39;100614.41;;;17.70;54.78
46756;BME280;32506;52.826;-1.192;2023-04-06T12:08:04;100619.88;;;17.75;54.57
46756;BME280;32506;52.826;-1.192;2023-04-06T12:10:30;100619.09;;;17.80;54.69
46756;BME280;32506;52.826;-1.192;2023-04-06T12:12:55;100619.63;;;17.82;54.66
46756;BME280;32506;52.826;-1.192;2023-04-06T12:15:21;100613.72;;;17.85;54.82
46756;BME280;32506;52.826;-1.192;2023-04-06T12:17:47;100625.38;;;17.90;54.37
46756;BME280;32506;52.826;-1.192;2023-04-06T12:20:13;100629.53;;;17.98;54.59
46756;BME280;32506;52.826;-1.192;2023-04-06T12:22:43;100624.38;;;18.02;54.36
46756;BME280;32506;52.826;-1.192;2023-04-06T12:25:08;100635.25;;;18.07;54.10
46756;BME280;32506;52.826;-1.192;2023-04-06T12:27:37;100631.78;;;18.11;53.90
46756;BME280;32506;52.826;-1.192;2023-04-06T12:30:03;100638.00;;;18.17;53.95
46756;BME280;32506;52.826;-1.192;2023-04-06T12:32:29;100635.88;;;18.24;54.23
46756;BME280;32506;52.826;-1.192;2023-04-06T12:34:55;100636.44;;;18.32;54.24
46756;BME280;32506;52.826;-1.192;2023-04-06T12:37:20;100646.22;;;18.38;54.29
46756;BME280;32506;52.826;-1.192;2023-04-06T12:39:46;100641.63;;;18.43;54.12
46756;BME280;32506;52.826;-1.192;2023-04-06T12:42:12;100638.19;;;18.53;54.53
46756;BME280;32506;52.826;-1.192;2023-04-06T12:44:39;100632.78;;;18.64;54.85
46756;BME280;32506;52.826;-1.192;2023-04-06T12:47:04;100636.91;;;18.76;54.64